If you wish to contribute or participate in the discussions about articles you are invited to join SKYbrary as a registered user

 Actions

Anvik Airport

From SKYbrary Wiki

PANV
Airport
ICAO: PANV – IATA: ANV
Summary
Name Anvik Airport
Region North America
Territory Alaska US.gif
Location , Alaska
Serving Anvik
Elevation 88.697 m
291 ft
291 ft88.697 m
Type medium airport
Coordinates 62° 38' 48.12", -160° 11' 27.6"
Runways
Designator Length Width Surface ROPS
17/35 902 m2,959.318 ft 23 m75.459 ft GVL /


METAR
Observation PANV 230856Z AUTO 27006KT 10SM CLR 11/06 A3005 RMK AO2 SLP198 T01110056 401610083 53015
Station Anvik, Anvik Airport
Date/Time 23 June 2018 08:56:00
Wind direction 270°
Wind speed 06 kts
Lowest cloud amount n/a
Temperature 11.1°C
Dew point 5.6°C
Humidity 68%
QNH hPa
Weather condition n/a